sensor_id;sensor_type;location;lat;lon;timestamp;P1;durP1;ratioP1;P2;durP2;ratioP2
35679;SDS011;21803;53.586;10.040;2023-02-21T00:01:54;1.77;;;0.57;;
35679;SDS011;21803;53.586;10.040;2023-02-21T00:04:38;0.90;;;0.60;;
35679;SDS011;21803;53.586;10.040;2023-02-21T00:07:23;1.67;;;0.73;;
35679;SDS011;21803;53.586;10.040;2023-02-21T00:10:07;0.40;;;0.40;;
35679;SDS011;21803;53.586;10.040;2023-02-21T00:12:54;1.40;;;0.68;;
35679;SDS011;21803;53.586;10.040;2023-02-21T00:15:38;1.35;;;0.60;;
35679;SDS011;21803;53.586;10.040;2023-02-21T00:18:22;1.85;;;0.52;;
35679;SDS011;21803;53.586;10.040;2023-02-21T00:21:06;1.02;;;0.60;;
35679;SDS011;21803;53.586;10.040;2023-02-21T00:23:50;0.60;;;0.50;;
35679;SDS011;21803;53.586;10.040;2023-02-21T00:26:34;0.55;;;0.55;;
35679;SDS011;21803;53.586;10.040;2023-02-21T00:29:18;1.27;;;0.70;;
35679;SDS011;21803;53.586;10.040;2023-02-21T00:32:02;1.13;;;0.47;;
35679;SDS011;21803;53.586;10.040;2023-02-21T00:34:46;0.68;;;0.50;;
35679;SDS011;21803;53.586;10.040;2023-02-21T00:37:30;0.85;;;0.50;;
35679;SDS011;21803;53.586;10.040;2023-02-21T00:40:14;0.52;;;0.50;;
35679;SDS011;21803;53.586;10.040;2023-02-21T00:42:58;0.65;;;0.50;;
35679;SDS011;21803;53.586;10.040;2023-02-21T00:45:43;0.70;;;0.50;;
35679;SDS011;21803;53.586;10.040;2023-02-21T00:48:28;0.68;;;0.50;;
35679;SDS011;21803;53.586;10.040;2023-02-21T00:51:13;3.53;;;0.50;;
35679;SDS011;21803;53.586;10.040;2023-02-21T00:53:57;1.27;;;0.50;;
35679;SDS011;21803;53.586;10.040;2023-02-21T00:56:41;0.63;;;0.50;;
35679;SDS011;21803;53.586;10.040;2023-02-21T00:59:25;0.55;;;0.40;;
35679;SDS011;21803;53.586;10.040;2023-02-21T01:02:09;1.45;;;0.50;;
35679;SDS011;21803;53.586;10.040;2023-02-21T01:04:54;1.05;;;0.60;;
35679;SDS011;21803;53.586;10.040;2023-02-21T01:07:38;0.80;;;0.60;;
35679;SDS011;21803;53.586;10.040;2023-02-21T01:10:22;0.60;;;0.60;;
35679;SDS011;21803;53.586;10.040;2023-02-21T01:13:06;0.90;;;0.60;;
35679;SDS011;21803;53.586;10.040;2023-02-21T01:15:50;0.47;;;0.40;;
35679;SDS011;21803;53.586;10.040;2023-02-21T01:18:35;0.50;;;0.50;;
35679;SDS011;21803;53.586;10.040;2023-02-21T01:21:19;0.80;;;0.50;;
35679;SDS011;21803;53.586;10.040;2023-02-21T01:24:04;1.00;;;0.50;;
35679;SDS011;21803;53.586;10.040;2023-02-21T01:26:49;0.40;;;0.40;;
35679;SDS011;21803;53.586;10.040;2023-02-21T01:29:33;0.60;;;0.40;;
35679;SDS011;21803;53.586;10.040;2023-02-21T01:32:18;0.30;;;0.30;;
35679;SDS011;21803;53.586;10.040;2023-02-21T01:35:02;0.47;;;0.40;;
35679;SDS011;21803;53.586;10.040;2023-02-21T01:37:47;0.45;;;0.45;;
35679;SDS011;21803;53.586;10.040;2023-02-21T01:40:31;0.98;;;0.50;;
35679;SDS011;21803;53.586;10.040;2023-02-21T01:43:16;0.50;;;0.40;;
35679;SDS011;21803;53.586;10.040;2023-02-21T01:46:02;0.95;;;0.50;;
35679;SDS011;21803;53.586;10.040;2023-02-21T01:48:47;0.57;;;0.55;;
35679;SDS011;21803;53.586;10.040;2023-02-21T01:51:34;0.75;;;0.50;;
35679;SDS011;21803;53.586;10.040;2023-02-21T01:54:21;0.28;;;0.25;;
35679;SDS011;21803;53.586;10.040;2023-02-21T01:57:08;0.52;;;0.40;;
35679;SDS011;21803;53.586;10.040;2023-02-21T01:59:54;0.70;;;0.40;;
35679;SDS011;21803;53.586;10.040;2023-02-21T02:02:51;0.30;;;0.30;;
35679;SDS011;21803;53.586;10.040;2023-02-21T02:05:40;0.30;;;0.30;;
35679;SDS011;21803;53.586;10.040;2023-02-21T02:08:28;0.32;;;0.32;;
35679;SDS011;21803;53.586;10.040;2023-02-21T02:11:37;1.27;;;0.60;;
35679;SDS011;21803;53.586;10.040;2023-02-21T02:17:21;0.88;;;0.60;;
35679;SDS011;21803;53.586;10.040;2023-02-21T02:20:20;0.50;;;0.40;;
35679;SDS011;21803;53.586;10.040;2023-02-21T02:33:29;0.30;;;0.30;;
35679;SDS011;21803;53.586;10.040;2023-02-21T02:42:06;0.88;;;0.40;;
35679;SDS011;21803;53.586;10.040;2023-02-21T02:44:41;0.40;;;0.35;;
35679;SDS011;21803;53.586;10.040;2023-02-21T02:47:22;0.85;;;0.40;;
35679;SDS011;21803;53.586;10.040;2023-02-21T02:49:52;0.60;;;0.40;;
35679;SDS011;21803;53.586;10.040;2023-02-21T02:52:19;0.47;;;0.40;;
35679;SDS011;21803;53.586;10.040;2023-02-21T02:54:54;0.70;;;0.50;;
35679;SDS011;21803;53.586;10.040;2023-02-21T02:57:26;0.20;;;0.20;;
35679;SDS011;21803;53.586;10.040;2023-02-21T02:59:54;0.30;;;0.25;;
35679;SDS011;21803;53.586;10.040;2023-02-21T03:02:37;0.65;;;0.50;;
35679;SDS011;21803;53.586;10.040;2023-02-21T03:08:08;0.40;;;0.40;;
35679;SDS011;21803;53.586;10.040;2023-02-21T03:13:17;0.40;;;0.40;;
35679;SDS011;21803;53.586;10.040;2023-02-21T03:16:03;0.30;;;0.30;;
35679;SDS011;21803;53.586;10.040;2023-02-21T03:18:35;0.38;;;0.38;;
35679;SDS011;21803;53.586;10.040;2023-02-21T03:21:04;0.32;;;0.30;;
35679;SDS011;21803;53.586;10.040;2023-02-21T03:23:36;0.65;;;0.50;;
35679;SDS011;21803;53.586;10.040;2023-02-21T03:26:04;0.55;;;0.30;;
35679;SDS011;21803;53.586;10.040;2023-02-21T03:28:33;0.30;;;0.30;;
35679;SDS011;21803;53.586;10.040;2023-02-21T03:31:00;0.50;;;0.30;;
35679;SDS011;21803;53.586;10.040;2023-02-21T03:33:27;0.63;;;0.40;;
35679;SDS011;21803;53.586;10.040;2023-02-21T03:35:53;0.30;;;0.30;;
35679;SDS011;21803;53.586;10.040;2023-02-21T03:38:19;0.60;;;0.38;;
35679;SDS011;21803;53.586;10.040;2023-02-21T03:40:44;0.30;;;0.30;;
35679;SDS011;21803;53.586;10.040;2023-02-21T03:43:10;0.40;;;0.38;;
35679;SDS011;21803;53.586;10.040;2023-02-21T03:45:36;0.75;;;0.40;;
35679;SDS011;21803;53.586;10.040;2023-02-21T03:48:02;0.70;;;0.40;;
35679;SDS011;21803;53.586;10.040;2023-02-21T03:50:28;0.75;;;0.30;;
35679;SDS011;21803;53.586;10.040;2023-02-21T03:52:53;0.43;;;0.30;;
35679;SDS011;21803;53.586;10.040;2023-02-21T03:55:19;0.25;;;0.25;;
35679;SDS011;21803;53.586;10.040;2023-02-21T03:57:45;0.30;;;0.30;;
35679;SDS011;21803;53.586;10.040;2023-02-21T04:00:11;0.43;;;0.32;;
35679;SDS011;21803;53.586;10.040;2023-02-21T04:02:39;0.30;;;0.30;;
35679;SDS011;21803;53.586;10.040;2023-02-21T04:05:04;0.30;;;0.30;;
35679;SDS011;21803;53.586;10.040;2023-02-21T04:07:30;0.60;;;0.30;;
35679;SDS011;21803;53.586;10.040;2023-02-21T04:09:56;0.20;;;0.20;;
35679;SDS011;21803;53.586;10.040;2023-02-21T04:12:21;0.60;;;0.35;;
35679;SDS011;21803;53.586;10.040;2023-02-21T04:14:47;0.95;;;0.40;;
35679;SDS011;21803;53.586;10.040;2023-02-21T04:17:12;0.70;;;0.30;;
35679;SDS011;21803;53.586;10.040;2023-02-21T04:19:40;0.13;;;0.13;;
35679;SDS011;21803;53.586;10.040;2023-02-21T04:22:05;0.13;;;0.13;;
35679;SDS011;21803;53.586;10.040;2023-02-21T04:24:31;0.63;;;0.32;;
35679;SDS011;21803;53.586;10.040;2023-02-21T04:26:56;0.25;;;0.25;;
35679;SDS011;21803;53.586;10.040;2023-02-21T04:29:22;0.05;;;0.05;;
35679;SDS011;21803;53.586;10.040;2023-02-21T04:31:48;0.50;;;0.35;;
35679;SDS011;21803;53.586;10.040;2023-02-21T04:34:13;0.30;;;0.20;;
35679;SDS011;21803;53.586;10.040;2023-02-21T04:36:39;0.85;;;0.45;;
35679;SDS011;21803;53.586;10.040;2023-02-21T04:39:05;0.30;;;0.30;;
35679;SDS011;21803;53.586;10.040;2023-02-21T04:41:31;0.15;;;0.15;;
35679;SDS011;21803;53.586;10.040;2023-02-21T04:43:58;0.25;;;0.25;;
35679;SDS011;21803;53.586;10.040;2023-02-21T04:46:23;0.90;;;0.30;;
35679;SDS011;21803;53.586;10.040;2023-02-21T04:48:49;0.15;;;0.10;;
35679;SDS011;21803;53.586;10.040;2023-02-21T04:51:16;0.40;;;0.38;;
35679;SDS011;21803;53.586;10.040;2023-02-21T04:53:45;0.20;;;0.20;;
35679;SDS011;21803;53.586;10.040;2023-02-21T04:56:11;0.13;;;0.13;;
35679;SDS011;21803;53.586;10.040;2023-02-21T04:58:37;0.30;;;0.30;;
35679;SDS011;21803;53.586;10.040;2023-02-21T05:01:03;0.20;;;0.20;;
35679;SDS011;21803;53.586;10.040;2023-02-21T05:03:29;0.60;;;0.28;;
35679;SDS011;21803;53.586;10.040;2023-02-21T05:05:54;0.32;;;0.28;;
35679;SDS011;21803;53.586;10.040;2023-02-21T05:08:20;0.32;;;0.32;;
35679;SDS011;21803;53.586;10.040;2023-02-21T05:10:46;0.10;;;0.10;;
35679;SDS011;21803;53.586;10.040;2023-02-21T05:13:12;0.20;;;0.20;;
35679;SDS011;21803;53.586;10.040;2023-02-21T05:15:38;0.30;;;0.22;;
35679;SDS011;21803;53.586;10.040;2023-02-21T05:18:04;0.55;;;0.20;;
35679;SDS011;21803;53.586;10.040;2023-02-21T05:20:29;0.30;;;0.30;;
35679;SDS011;21803;53.586;10.040;2023-02-21T05:22:55;0.30;;;0.30;;
35679;SDS011;21803;53.586;10.040;2023-02-21T05:25:21;0.45;;;0.30;;
35679;SDS011;21803;53.586;10.040;2023-02-21T05:27:47;0.50;;;0.30;;
35679;SDS011;21803;53.586;10.040;2023-02-21T05:30:14;0.20;;;0.20;;
35679;SDS011;21803;53.586;10.040;2023-02-21T05:32:42;0.32;;;0.30;;
35679;SDS011;21803;53.586;10.040;2023-02-21T05:35:08;0.20;;;0.20;;
35679;SDS011;21803;53.586;10.040;2023-02-21T05:37:34;0.40;;;0.35;;
35679;SDS011;21803;53.586;10.040;2023-02-21T05:39:59;0.50;;;0.32;;
35679;SDS011;21803;53.586;10.040;2023-02-21T05:42:25;0.40;;;0.30;;
35679;SDS011;21803;53.586;10.040;2023-02-21T05:44:51;0.60;;;0.40;;
35679;SDS011;21803;53.586;10.040;2023-02-21T05:47:16;0.30;;;0.30;;
35679;SDS011;21803;53.586;10.040;2023-02-21T05:49:42;0.75;;;0.50;;
35679;SDS011;21803;53.586;10.040;2023-02-21T05:52:10;0.38;;;0.30;;
35679;SDS011;21803;53.586;10.040;2023-02-21T05:54:37;0.30;;;0.20;;
35679;SDS011;21803;53.586;10.040;2023-02-21T05:57:03;0.38;;;0.20;;
35679;SDS011;21803;53.586;10.040;2023-02-21T05:59:29;0.43;;;0.30;;
35679;SDS011;21803;53.586;10.040;2023-02-21T06:01:54;0.20;;;0.20;;
35679;SDS011;21803;53.586;10.040;2023-02-21T06:04:21;0.50;;;0.32;;
35679;SDS011;21803;53.586;10.040;2023-02-21T06:06:47;0.32;;;0.20;;
35679;SDS011;21803;53.586;10.040;2023-02-21T06:09:13;0.57;;;0.30;;
35679;SDS011;21803;53.586;10.040;2023-02-21T06:11:38;0.52;;;0.30;;
35679;SDS011;21803;53.586;10.040;2023-02-21T06:14:06;0.20;;;0.20;;
35679;SDS011;21803;53.586;10.040;2023-02-21T06:16:37;0.35;;;0.35;;
35679;SDS011;21803;53.586;10.040;2023-02-21T06:19:03;0.35;;;0.30;;
35679;SDS011;21803;53.586;10.040;2023-02-21T06:21:31;0.40;;;0.30;;
35679;SDS011;21803;53.586;10.040;2023-02-21T06:23:57;0.38;;;0.30;;
35679;SDS011;21803;53.586;10.040;2023-02-21T06:26:23;0.38;;;0.22;;
35679;SDS011;21803;53.586;10.040;2023-02-21T06:28:49;0.70;;;0.40;;
35679;SDS011;21803;53.586;10.040;2023-02-21T06:31:16;0.43;;;0.32;;
35679;SDS011;21803;53.586;10.040;2023-02-21T06:33:42;0.40;;;0.30;;
35679;SDS011;21803;53.586;10.040;2023-02-21T06:36:10;0.32;;;0.30;;
35679;SDS011;21803;53.586;10.040;2023-02-21T06:38:37;0.30;;;0.30;;
35679;SDS011;21803;53.586;10.040;2023-02-21T06:41:07;0.50;;;0.20;;
35679;SDS011;21803;53.586;10.040;2023-02-21T06:43:32;0.20;;;0.20;;
35679;SDS011;21803;53.586;10.040;2023-02-21T06:46:00;0.43;;;0.35;;
35679;SDS011;21803;53.586;10.040;2023-02-21T06:48:26;0.57;;;0.40;;
35679;SDS011;21803;53.586;10.040;2023-02-21T06:50:52;0.35;;;0.32;;
35679;SDS011;21803;53.586;10.040;2023-02-21T06:53:17;0.85;;;0.32;;
35679;SDS011;21803;53.586;10.040;2023-02-21T06:55:44;0.57;;;0.50;;
35679;SDS011;21803;53.586;10.040;2023-02-21T06:58:10;0.35;;;0.30;;
35679;SDS011;21803;53.586;10.040;2023-02-21T07:00:35;0.30;;;0.30;;
35679;SDS011;21803;53.586;10.040;2023-02-21T07:03:01;0.80;;;0.30;;
35679;SDS011;21803;53.586;10.040;2023-02-21T07:05:27;0.60;;;0.50;;
35679;SDS011;21803;53.586;10.040;2023-02-21T07:07:53;0.40;;;0.40;;
35679;SDS011;21803;53.586;10.040;2023-02-21T07:10:19;0.52;;;0.30;;
35679;SDS011;21803;53.586;10.040;2023-02-21T07:12:44;0.68;;;0.40;;
35679;SDS011;21803;53.586;10.040;2023-02-21T07:15:10;0.52;;;0.35;;
35679;SDS011;21803;53.586;10.040;2023-02-21T07:17:35;0.30;;;0.30;;
35679;SDS011;21803;53.586;10.040;2023-02-21T07:20:01;0.30;;;0.22;;
35679;SDS011;21803;53.586;10.040;2023-02-21T07:22:28;0.73;;;0.30;;
35679;SDS011;21803;53.586;10.040;2023-02-21T07:24:54;0.60;;;0.47;;
35679;SDS011;21803;53.586;10.040;2023-02-21T07:27:20;0.32;;;0.30;;
35679;SDS011;21803;53.586;10.040;2023-02-21T07:29:46;0.60;;;0.50;;
35679;SDS011;21803;53.586;10.040;2023-02-21T07:32:13;0.82;;;0.50;;
35679;SDS011;21803;53.586;10.040;2023-02-21T07:34:39;0.47;;;0.32;;
35679;SDS011;21803;53.586;10.040;2023-02-21T07:37:04;0.38;;;0.30;;
35679;SDS011;21803;53.586;10.040;2023-02-21T07:39:30;0.65;;;0.50;;
35679;SDS011;21803;53.586;10.040;2023-02-21T07:41:55;0.45;;;0.32;;
35679;SDS011;21803;53.586;10.040;2023-02-21T07:44:21;0.55;;;0.40;;
35679;SDS011;21803;53.586;10.040;2023-02-21T07:46:46;0.40;;;0.30;;
35679;SDS011;21803;53.586;10.040;2023-02-21T07:49:12;1.30;;;0.50;;
35679;SDS011;21803;53.586;10.040;2023-02-21T07:51:37;0.60;;;0.30;;
35679;SDS011;21803;53.586;10.040;2023-02-21T07:54:03;0.70;;;0.40;;
35679;SDS011;21803;53.586;10.040;2023-02-21T07:56:29;1.20;;;0.47;;
35679;SDS011;21803;53.586;10.040;2023-02-21T07:58:54;0.35;;;0.25;;
35679;SDS011;21803;53.586;10.040;2023-02-21T08:01:21;0.40;;;0.40;;
35679;SDS011;21803;53.586;10.040;2023-02-21T08:03:48;1.27;;;0.35;;
35679;SDS011;21803;53.586;10.040;2023-02-21T08:06:13;0.73;;;0.50;;
35679;SDS011;21803;53.586;10.040;2023-02-21T08:08:39;0.30;;;0.30;;
35679;SDS011;21803;53.586;10.040;2023-02-21T08:11:05;0.50;;;0.30;;
35679;SDS011;21803;53.586;10.040;2023-02-21T08:13:30;0.50;;;0.40;;
35679;SDS011;21803;53.586;10.040;2023-02-21T08:15:56;0.38;;;0.30;;
35679;SDS011;21803;53.586;10.040;2023-02-21T08:18:21;1.35;;;0.63;;
35679;SDS011;21803;53.586;10.040;2023-02-21T08:20:51;1.23;;;0.47;;
35679;SDS011;21803;53.586;10.040;2023-02-21T08:23:18;0.38;;;0.35;;
35679;SDS011;21803;53.586;10.040;2023-02-21T08:25:45;0.75;;;0.38;;
35679;SDS011;21803;53.586;10.040;2023-02-21T08:28:11;1.25;;;0.40;;
35679;SDS011;21803;53.586;10.040;2023-02-21T08:30:36;0.65;;;0.50;;
35679;SDS011;21803;53.586;10.040;2023-02-21T08:33:02;0.47;;;0.20;;
35679;SDS011;21803;53.586;10.040;2023-02-21T08:35:28;0.77;;;0.40;;
35679;SDS011;21803;53.586;10.040;2023-02-21T08:37:53;0.65;;;0.38;;
35679;SDS011;21803;53.586;10.040;2023-02-21T08:40:20;0.98;;;0.40;;
35679;SDS011;21803;53.586;10.040;2023-02-21T08:42:52;0.73;;;0.30;;
35679;SDS011;21803;53.586;10.040;2023-02-21T08:45:19;0.28;;;0.20;;
35679;SDS011;21803;53.586;10.040;2023-02-21T08:47:45;0.65;;;0.43;;
35679;SDS011;21803;53.586;10.040;2023-02-21T08:50:11;0.95;;;0.40;;
35679;SDS011;21803;53.586;10.040;2023-02-21T08:52:37;1.25;;;0.50;;
35679;SDS011;21803;53.586;10.040;2023-02-21T08:55:03;0.52;;;0.40;;
35679;SDS011;21803;53.586;10.040;2023-02-21T08:57:29;0.68;;;0.40;;
35679;SDS011;21803;53.586;10.040;2023-02-21T08:59:55;1.13;;;0.60;;
35679;SDS011;21803;53.586;10.040;2023-02-21T09:02:22;0.60;;;0.43;;
35679;SDS011;21803;53.586;10.040;2023-02-21T09:04:49;1.02;;;0.60;;
35679;SDS011;21803;53.586;10.040;2023-02-21T09:07:16;0.85;;;0.40;;
35679;SDS011;21803;53.586;10.040;2023-02-21T09:09:43;0.90;;;0.50;;
35679;SDS011;21803;53.586;10.040;2023-02-21T09:12:09;0.38;;;0.38;;
35679;SDS011;21803;53.586;10.040;2023-02-21T09:14:35;1.25;;;0.40;;
35679;SDS011;21803;53.586;10.040;2023-02-21T09:17:02;1.58;;;0.47;;
35679;SDS011;21803;53.586;10.040;2023-02-21T09:19:29;0.65;;;0.50;;
35679;SDS011;21803;53.586;10.040;2023-02-21T09:21:55;2.05;;;0.52;;
35679;SDS011;21803;53.586;10.040;2023-02-21T09:24:20;0.90;;;0.50;;
35679;SDS011;21803;53.586;10.040;2023-02-21T09:26:49;0.85;;;0.40;;
35679;SDS011;21803;53.586;10.040;2023-02-21T09:29:18;0.50;;;0.40;;
35679;SDS011;21803;53.586;10.040;2023-02-21T09:31:48;0.90;;;0.50;;
35679;SDS011;21803;53.586;10.040;2023-02-21T09:34:14;1.25;;;0.50;;
35679;SDS011;21803;53.586;10.040;2023-02-21T09:36:39;0.63;;;0.40;;
35679;SDS011;21803;53.586;10.040;2023-02-21T09:39:05;1.05;;;0.57;;
35679;SDS011;21803;53.586;10.040;2023-02-21T09:41:31;1.40;;;0.50;;
35679;SDS011;21803;53.586;10.040;2023-02-21T09:43:58;0.57;;;0.30;;
35679;SDS011;21803;53.586;10.040;2023-02-21T09:49:39;0.68;;;0.40;;
35679;SDS011;21803;53.586;10.040;2023-02-21T09:52:06;1.75;;;0.57;;
35679;SDS011;21803;53.586;10.040;2023-02-21T09:54:46;0.80;;;0.50;;
35679;SDS011;21803;53.586;10.040;2023-02-21T09:57:18;0.80;;;0.50;;
35679;SDS011;21803;53.586;10.040;2023-02-21T09:59:44;1.40;;;0.57;;
35679;SDS011;21803;53.586;10.040;2023-02-21T10:10:12;0.80;;;0.50;;
35679;SDS011;21803;53.586;10.040;2023-02-21T10:12:45;1.38;;;0.77;;
35679;SDS011;21803;53.586;10.040;2023-02-21T10:15:25;1.67;;;0.60;;
35679;SDS011;21803;53.586;10.040;2023-02-21T10:21:01;2.35;;;0.73;;
35679;SDS011;21803;53.586;10.040;2023-02-21T10:23:48;0.40;;;0.40;;
35679;SDS011;21803;53.586;10.040;2023-02-21T10:26:28;0.40;;;0.35;;
35679;SDS011;21803;53.586;10.040;2023-02-21T10:28:57;0.75;;;0.45;;
35679;SDS011;21803;53.586;10.040;2023-02-21T10:31:29;1.27;;;0.60;;
35679;SDS011;21803;53.586;10.040;2023-02-21T10:34:00;1.50;;;0.57;;
35679;SDS011;21803;53.586;10.040;2023-02-21T10:36:29;1.90;;;0.65;;
35679;SDS011;21803;53.586;10.040;2023-02-21T10:41:42;0.73;;;0.40;;
35679;SDS011;21803;53.586;10.040;2023-02-21T10:49:57;1.05;;;0.57;;
35679;SDS011;21803;53.586;10.040;2023-02-21T10:52:26;1.05;;;0.50;;
35679;SDS011;21803;53.586;10.040;2023-02-21T10:55:03;1.20;;;0.50;;
35679;SDS011;21803;53.586;10.040;2023-02-21T10:57:48;1.15;;;0.57;;
35679;SDS011;21803;53.586;10.040;2023-02-21T11:00:36;0.68;;;0.50;;
35679;SDS011;21803;53.586;10.040;2023-02-21T11:03:06;1.15;;;0.65;;
35679;SDS011;21803;53.586;10.040;2023-02-21T11:05:37;0.95;;;0.70;;
35679;SDS011;21803;53.586;10.040;2023-02-21T11:08:08;1.50;;;0.60;;
35679;SDS011;21803;53.586;10.040;2023-02-21T11:10:38;1.23;;;0.70;;
35679;SDS011;21803;53.586;10.040;2023-02-21T11:15:32;1.08;;;0.55;;
35679;SDS011;21803;53.586;10.040;2023-02-21T11:18:03;1.27;;;0.60;;
35679;SDS011;21803;53.586;10.040;2023-02-21T11:20:30;1.85;;;0.80;;
35679;SDS011;21803;53.586;10.040;2023-02-21T11:22:57;2.33;;;0.70;;
35679;SDS011;21803;53.586;10.040;2023-02-21T11:25:29;1.15;;;0.70;;
35679;SDS011;21803;53.586;10.040;2023-02-21T11:30:48;1.25;;;0.63;;
35679;SDS011;21803;53.586;10.040;2023-02-21T11:33:27;0.50;;;0.40;;
35679;SDS011;21803;53.586;10.040;2023-02-21T11:36:06;1.00;;;0.70;;
35679;SDS011;21803;53.586;10.040;2023-02-21T11:38:39;1.25;;;0.40;;
35679;SDS011;21803;53.586;10.040;2023-02-21T11:41:30;1.25;;;0.57;;
35679;SDS011;21803;53.586;10.040;2023-02-21T11:44:31;0.85;;;0.65;;
35679;SDS011;21803;53.586;10.040;2023-02-21T11:47:15;2.10;;;0.82;;
35679;SDS011;21803;53.586;10.040;2023-02-21T11:52:48;0.85;;;0.57;;
35679;SDS011;21803;53.586;10.040;2023-02-21T11:55:43;0.90;;;0.43;;
35679;SDS011;21803;53.586;10.040;2023-02-21T12:01:04;1.15;;;0.70;;
35679;SDS011;21803;53.586;10.040;2023-02-21T12:09:11;1.58;;;0.40;;
35679;SDS011;21803;53.586;10.040;2023-02-21T12:22:01;1.35;;;0.50;;
35679;SDS011;21803;53.586;10.040;2023-02-21T12:24:39;1.30;;;0.55;;
35679;SDS011;21803;53.586;10.040;2023-02-21T12:27:23;1.55;;;0.65;;
35679;SDS011;21803;53.586;10.040;2023-02-21T12:36:09;1.52;;;0.70;;
35679;SDS011;21803;53.586;10.040;2023-02-21T12:38:50;1.85;;;0.77;;
35679;SDS011;21803;53.586;10.040;2023-02-21T12:41:47;1.65;;;0.60;;
35679;SDS011;21803;53.586;10.040;2023-02-21T12:44:31;1.65;;;0.80;;
35679;SDS011;21803;53.586;10.040;2023-02-21T12:47:27;2.25;;;0.70;;
35679;SDS011;21803;53.586;10.040;2023-02-21T12:50:05;1.63;;;0.63;;
35679;SDS011;21803;53.586;10.040;2023-02-21T12:52:52;1.38;;;0.75;;
35679;SDS011;21803;53.586;10.040;2023-02-21T12:56:01;1.52;;;0.75;;
35679;SDS011;21803;53.586;10.040;2023-02-21T12:58:31;5.57;;;1.20;;
35679;SDS011;21803;53.586;10.040;2023-02-21T13:01:07;1.73;;;0.73;;
35679;SDS011;21803;53.586;10.040;2023-02-21T13:06:25;2.15;;;0.82;;
35679;SDS011;21803;53.586;10.040;2023-02-21T13:09:01;2.17;;;0.82;;
35679;SDS011;21803;53.586;10.040;2023-02-21T13:11:58;1.67;;;0.63;;
35679;SDS011;21803;53.586;10.040;2023-02-21T13:14:40;1.50;;;0.80;;
35679;SDS011;21803;53.586;10.040;2023-02-21T13:17:12;2.03;;;0.85;;
35679;SDS011;21803;53.586;10.040;2023-02-21T13:19:53;1.95;;;0.60;;
35679;SDS011;21803;53.586;10.040;2023-02-21T13:22:30;2.92;;;0.85;;
35679;SDS011;21803;53.586;10.040;2023-02-21T13:30:39;1.83;;;0.90;;
35679;SDS011;21803;53.586;10.040;2023-02-21T13:33:20;1.85;;;0.80;;
35679;SDS011;21803;53.586;10.040;2023-02-21T13:35:59;4.30;;;0.88;;
35679;SDS011;21803;53.586;10.040;2023-02-21T13:38:29;1.90;;;0.85;;
35679;SDS011;21803;53.586;10.040;2023-02-21T13:41:04;3.03;;;0.85;;
35679;SDS011;21803;53.586;10.040;2023-02-21T13:43:34;1.38;;;0.60;;
35679;SDS011;21803;53.586;10.040;2023-02-21T13:57:34;1.80;;;0.73;;
35679;SDS011;21803;53.586;10.040;2023-02-21T14:00:44;2.28;;;0.63;;
35679;SDS011;21803;53.586;10.040;2023-02-21T14:02:57;1.67;;;0.73;;
35679;SDS011;21803;53.586;10.040;2023-02-21T14:05:25;2.10;;;0.85;;
35679;SDS011;21803;53.586;10.040;2023-02-21T14:13:34;1.73;;;0.60;;
35679;SDS011;21803;53.586;10.040;2023-02-21T14:16:19;1.23;;;0.60;;
35679;SDS011;21803;53.586;10.040;2023-02-21T14:18:56;1.55;;;0.70;;
35679;SDS011;21803;53.586;10.040;2023-02-21T14:39:48;1.30;;;0.80;;
35679;SDS011;21803;53.586;10.040;2023-02-21T14:42:23;2.10;;;0.93;;
35679;SDS011;21803;53.586;10.040;2023-02-21T14:50:40;1.77;;;0.63;;
35679;SDS011;21803;53.586;10.040;2023-02-21T14:53:39;1.45;;;0.90;;
35679;SDS011;21803;53.586;10.040;2023-02-21T15:08:00;1.23;;;0.57;;
35679;SDS011;21803;53.586;10.040;2023-02-21T15:10:40;1.33;;;0.68;;
35679;SDS011;21803;53.586;10.040;2023-02-21T15:13:21;2.40;;;0.80;;
35679;SDS011;21803;53.586;10.040;2023-02-21T15:15:58;1.67;;;0.75;;
35679;SDS011;21803;53.586;10.040;2023-02-21T15:18:30;1.23;;;0.70;;
35679;SDS011;21803;53.586;10.040;2023-02-21T15:24:01;2.10;;;0.82;;
35679;SDS011;21803;53.586;10.040;2023-02-21T15:26:46;1.58;;;0.75;;
35679;SDS011;21803;53.586;10.040;2023-02-21T15:29:13;0.77;;;0.50;;
35679;SDS011;21803;53.586;10.040;2023-02-21T15:31:51;1.90;;;0.70;;
35679;SDS011;21803;53.586;10.040;2023-02-21T15:34:25;1.38;;;0.80;;
35679;SDS011;21803;53.586;10.040;2023-02-21T15:36:57;1.23;;;0.65;;
35679;SDS011;21803;53.586;10.040;2023-02-21T15:39:48;1.83;;;0.70;;
35679;SDS011;21803;53.586;10.040;2023-02-21T15:42:16;1.45;;;0.80;;
35679;SDS011;21803;53.586;10.040;2023-02-21T15:44:44;2.45;;;0.80;;
35679;SDS011;21803;53.586;10.040;2023-02-21T15:47:17;1.20;;;0.70;;
35679;SDS011;21803;53.586;10.040;2023-02-21T16:00:25;1.73;;;1.00;;
35679;SDS011;21803;53.586;10.040;2023-02-21T16:02:51;3.13;;;0.70;;
35679;SDS011;21803;53.586;10.040;2023-02-21T16:05:37;2.08;;;0.70;;
35679;SDS011;21803;53.586;10.040;2023-02-21T16:08:02;1.38;;;0.63;;
35679;SDS011;21803;53.586;10.040;2023-02-21T16:10:28;1.58;;;0.85;;
35679;SDS011;21803;53.586;10.040;2023-02-21T16:12:56;1.73;;;0.70;;
35679;SDS011;21803;53.586;10.040;2023-02-21T16:15:25;1.40;;;0.77;;
35679;SDS011;21803;53.586;10.040;2023-02-21T16:17:53;1.17;;;0.70;;
35679;SDS011;21803;53.586;10.040;2023-02-21T16:20:35;1.45;;;0.85;;
35679;SDS011;21803;53.586;10.040;2023-02-21T16:23:23;3.88;;;0.70;;
35679;SDS011;21803;53.586;10.040;2023-02-21T16:28:19;2.88;;;0.90;;
35679;SDS011;21803;53.586;10.040;2023-02-21T16:30:44;1.40;;;0.70;;
35679;SDS011;21803;53.586;10.040;2023-02-21T16:33:11;1.77;;;0.77;;
35679;SDS011;21803;53.586;10.040;2023-02-21T16:35:37;2.30;;;0.70;;
35679;SDS011;21803;53.586;10.040;2023-02-21T16:38:03;1.33;;;0.73;;
35679;SDS011;21803;53.586;10.040;2023-02-21T16:40:32;1.92;;;0.90;;
35679;SDS011;21803;53.586;10.040;2023-02-21T16:42:58;1.52;;;0.90;;
35679;SDS011;21803;53.586;10.040;2023-02-21T16:45:26;0.77;;;0.60;;
35679;SDS011;21803;53.586;10.040;2023-02-21T16:47:59;3.20;;;0.90;;
35679;SDS011;21803;53.586;10.040;2023-02-21T16:50:33;2.15;;;0.77;;
35679;SDS011;21803;53.586;10.040;2023-02-21T16:53:04;1.95;;;0.80;;
35679;SDS011;21803;53.586;10.040;2023-02-21T16:55:30;1.40;;;0.80;;
35679;SDS011;21803;53.586;10.040;2023-02-21T16:57:59;0.82;;;0.40;;
35679;SDS011;21803;53.586;10.040;2023-02-21T17:00:27;1.77;;;0.73;;
35679;SDS011;21803;53.586;10.040;2023-02-21T17:02:55;1.60;;;0.75;;
35679;SDS011;21803;53.586;10.040;2023-02-21T17:05:20;1.45;;;0.75;;
35679;SDS011;21803;53.586;10.040;2023-02-21T17:07:46;1.10;;;0.68;;
35679;SDS011;21803;53.586;10.040;2023-02-21T17:10:13;1.42;;;0.80;;
35679;SDS011;21803;53.586;10.040;2023-02-21T17:12:39;1.00;;;0.70;;
35679;SDS011;21803;53.586;10.040;2023-02-21T17:15:04;2.13;;;0.82;;
35679;SDS011;21803;53.586;10.040;2023-02-21T17:17:30;3.78;;;0.70;;
35679;SDS011;21803;53.586;10.040;2023-02-21T17:19:56;1.38;;;0.60;;
35679;SDS011;21803;53.586;10.040;2023-02-21T17:22:21;2.10;;;0.90;;
35679;SDS011;21803;53.586;10.040;2023-02-21T17:24:47;1.30;;;0.60;;
35679;SDS011;21803;53.586;10.040;2023-02-21T17:27:13;4.70;;;0.90;;
35679;SDS011;21803;53.586;10.040;2023-02-21T17:29:38;1.83;;;0.75;;
35679;SDS011;21803;53.586;10.040;2023-02-21T17:32:04;0.95;;;0.57;;
35679;SDS011;21803;53.586;10.040;2023-02-21T17:34:34;1.58;;;0.70;;
35679;SDS011;21803;53.586;10.040;2023-02-21T17:37:01;1.52;;;0.50;;
35679;SDS011;21803;53.586;10.040;2023-02-21T17:39:27;0.93;;;0.57;;
35679;SDS011;21803;53.586;10.040;2023-02-21T17:41:53;2.38;;;0.90;;